aviador You're here:

CYDF Decoded Metar

DEER LAKE in NL, CANADA
Report Time2017-10-20 12:00:00
UTC Time2017-10-20 12:24:59
Flight Rules mvfr MVFR
Wind220° at 13 Gusting to 18 kt
W.Decomp.*RWY 25: 12.9 kt HW 1.8 kt LCW
W.Rank220° ranks 3
Current wind is above 220° avg. (10.4)
Visibility9999 m
Phenomena:Light Rain
Clouds:Overcast 020 Hf
Expected CloudBase > 800 ft AGL from Temp-Dew spread
Ceiling2,000 ft
Temp12°C (ISA -3)
Dew Point10°C (88% RH)
AAT7.4°C
QNH1001 hPa
Density Alt305 ft
Elevation72 ft
Report Wrong Elevation
Raw Report
CYDF 201200Z 22013G18KT 8SM -RA OVC020 12/10 A2956 RMK SC8 SLP012
DENSITY ALT 200FT=

Extra information for CYDF:More info

Metar Taf Metar & Taf Last 4 Metars F.Rules Stats Wind Profile Meteogram Temp Stats Airport Information Weather charts Add Link Nearby VenuesMetar ALERT Operation Metar Decoded Social comments